createdAt,value
2018-11-14T00:00:36.725Z,6.60
2018-11-14T00:03:05.808Z,6.80
2018-11-14T00:05:36.769Z,5.97
2018-11-14T00:08:05.990Z,5.97
2018-11-14T00:10:35.702Z,7.13
2018-11-14T00:13:06.393Z,6.93
2018-11-14T00:15:36.006Z,6.67
2018-11-14T00:18:05.199Z,6.77
2018-11-14T00:20:34.228Z,8.13
2018-11-14T00:23:03.115Z,10.90
2018-11-14T00:25:33.607Z,9.03
2018-11-14T00:28:03.062Z,10.27
2018-11-14T00:30:33.032Z,9.70
2018-11-14T00:33:03.308Z,10.13
2018-11-14T00:35:32.702Z,11.47
2018-11-14T00:38:01.761Z,10.50
2018-11-14T00:40:32.189Z,11.07
2018-11-14T00:43:01.972Z,11.00
2018-11-14T00:45:31.585Z,11.57
2018-11-14T00:48:00.366Z,10.03
2018-11-14T00:50:29.357Z,9.93
2018-11-14T00:52:58.443Z,9.67
2018-11-14T00:55:28.000Z,9.90
2018-11-14T00:57:58.453Z,9.27
2018-11-14T01:00:28.034Z,9.63
2018-11-14T01:02:57.976Z,10.73
2018-11-14T01:05:28.234Z,11.07
2018-11-14T01:07:57.631Z,11.40
2018-11-14T01:10:26.662Z,11.57
2018-11-14T01:12:56.177Z,10.47
2018-11-14T01:15:25.893Z,10.30
2018-11-14T01:17:55.025Z,11.03
2018-11-14T01:20:26.121Z,10.07
2018-11-14T01:22:55.315Z,9.97
2018-11-14T01:25:23.950Z,10.20
2018-11-14T01:27:53.685Z,9.83
2018-11-14T01:30:23.697Z,13.03
2018-11-14T01:32:52.845Z,11.10
2018-11-14T01:35:22.104Z,12.17
2018-11-14T01:37:51.218Z,12.40
2018-11-14T01:40:22.298Z,11.57
2018-11-14T01:42:52.972Z,14.93
2018-11-14T01:45:23.549Z,14.10
2018-11-14T01:47:53.194Z,11.57
2018-11-14T01:50:22.607Z,11.93
2018-11-14T01:52:51.200Z,10.33
2018-11-14T01:55:21.349Z,11.00
2018-11-14T01:57:51.754Z,12.37
2018-11-14T02:00:24.564Z,9.13
2018-11-14T02:02:54.133Z,10.37
2018-11-14T02:05:23.462Z,10.23
2018-11-14T02:07:52.459Z,9.93
2018-11-14T02:10:21.616Z,9.97
2018-11-14T02:12:51.707Z,8.53
2018-11-14T02:15:22.319Z,9.40
2018-11-14T02:17:51.603Z,9.33
2018-11-14T02:20:21.757Z,8.87
2018-11-14T02:22:50.800Z,8.53
2018-11-14T02:25:20.477Z,7.37
2018-11-14T02:27:49.750Z,7.93
2018-11-14T02:30:20.353Z,8.90
2018-11-14T02:32:49.875Z,6.87
2018-11-14T02:35:19.937Z,6.10
2018-11-14T02:37:51.214Z,7.43
2018-11-14T02:40:21.455Z,8.50
2018-11-14T02:42:51.834Z,7.90
2018-11-14T02:45:21.039Z,8.93
2018-11-14T02:47:50.308Z,8.23
2018-11-14T02:50:20.430Z,9.73
2018-11-14T02:52:49.619Z,10.20
2018-11-14T02:55:18.753Z,10.27
2018-11-14T02:57:48.777Z,10.40
2018-11-14T03:00:19.294Z,11.57
2018-11-14T03:02:50.310Z,10.77
2018-11-14T03:05:19.797Z,11.43
2018-11-14T03:07:50.417Z,10.83
2018-11-14T03:10:20.633Z,11.43
2018-11-14T03:12:50.390Z,11.77
2018-11-14T03:15:22.909Z,12.67
2018-11-14T03:17:53.118Z,12.23
2018-11-14T03:20:23.355Z,12.10
2018-11-14T03:22:52.712Z,11.60
2018-11-14T03:25:22.653Z,12.23
2018-11-14T03:27:51.734Z,12.43
2018-11-14T03:30:20.745Z,10.80
2018-11-14T03:32:50.733Z,11.47
2018-11-14T03:35:22.089Z,11.43
2018-11-14T03:37:51.874Z,11.10
2018-11-14T03:40:21.984Z,11.70
2018-11-14T03:42:50.965Z,13.70
2018-11-14T03:45:20.984Z,14.80
2018-11-14T03:47:50.032Z,17.60
2018-11-14T03:50:19.601Z,18.10
2018-11-14T03:52:48.686Z,17.93
2018-11-14T03:55:18.428Z,16.73
2018-11-14T03:57:51.869Z,20.37
2018-11-14T04:00:21.745Z,19.53
2018-11-14T04:02:51.645Z,20.93
2018-11-14T04:05:22.172Z,22.13
2018-11-14T04:07:51.125Z,20.73
2018-11-14T04:10:20.577Z,22.27
2018-11-14T04:12:50.465Z,23.03
2018-11-14T04:15:19.623Z,20.57
2018-11-14T04:17:49.373Z,33.90
2018-11-14T04:20:18.773Z,20.67
2018-11-14T04:22:47.758Z,22.87
2018-11-14T04:25:19.777Z,22.17
2018-11-14T04:27:49.196Z,19.90
2018-11-14T04:30:22.622Z,20.03
2018-11-14T04:32:52.189Z,25.23
2018-11-14T04:35:22.011Z,19.33
2018-11-14T04:37:51.536Z,20.80
2018-11-14T04:40:23.705Z,20.40
2018-11-14T04:42:54.054Z,21.30
2018-11-14T04:45:26.170Z,19.07
2018-11-14T04:47:56.439Z,20.77
2018-11-14T04:50:26.981Z,19.93
2018-11-14T04:52:57.343Z,20.30
2018-11-14T04:55:27.317Z,20.83
2018-11-14T04:57:56.669Z,24.47
2018-11-14T05:00:26.940Z,22.10
2018-11-14T05:02:56.371Z,20.20
2018-11-14T05:05:25.759Z,21.33
2018-11-14T05:07:55.064Z,21.17
2018-11-14T05:10:25.921Z,21.87
2018-11-14T05:12:56.134Z,21.07
2018-11-14T05:15:26.313Z,23.97
2018-11-14T05:17:56.072Z,23.23
2018-11-14T05:20:25.749Z,22.43
2018-11-14T05:22:55.535Z,27.83
2018-11-14T05:25:25.320Z,25.07
2018-11-14T05:27:55.419Z,24.97
2018-11-14T05:30:26.563Z,24.57
2018-11-14T05:32:56.492Z,26.03
2018-11-14T05:35:26.169Z,25.70
2018-11-14T05:37:55.124Z,24.90
2018-11-14T05:40:25.422Z,25.73
2018-11-14T05:42:55.627Z,23.37
2018-11-14T05:45:26.753Z,22.97
2018-11-14T05:47:55.579Z,24.00
2018-11-14T05:50:25.652Z,24.17
2018-11-14T05:52:55.529Z,24.80
2018-11-14T05:55:24.137Z,24.50
2018-11-14T05:57:54.313Z,21.17
2018-11-14T06:00:31.025Z,22.60
2018-11-14T06:03:01.612Z,23.60
2018-11-14T06:05:31.121Z,23.30
2018-11-14T06:08:00.795Z,23.13
2018-11-14T06:10:30.585Z,28.00
2018-11-14T06:13:00.600Z,21.90
2018-11-14T06:15:30.905Z,23.77
2018-11-14T06:17:59.689Z,25.37
2018-11-14T06:20:28.879Z,25.03
2018-11-14T06:22:57.797Z,20.67
2018-11-14T06:25:32.060Z,21.80
2018-11-14T06:28:03.489Z,26.57
2018-11-14T06:30:32.912Z,21.40
2018-11-14T06:33:03.704Z,24.40
2018-11-14T06:35:34.301Z,30.87
2018-11-14T06:38:03.972Z,32.20
2018-11-14T06:40:35.189Z,23.03
2018-11-14T06:43:05.172Z,21.23
2018-11-14T06:45:35.755Z,23.97
2018-11-14T06:48:06.591Z,23.83
2018-11-14T06:50:35.804Z,24.30
2018-11-14T06:53:06.123Z,20.17
2018-11-14T06:55:35.309Z,21.47
2018-11-14T06:58:05.733Z,24.47
2018-11-14T07:00:36.303Z,20.93
2018-11-14T07:03:06.829Z,19.67
2018-11-14T07:05:35.463Z,18.93
2018-11-14T07:08:04.839Z,21.73
2018-11-14T07:10:36.234Z,23.70
2018-11-14T07:13:07.527Z,21.40
2018-11-14T07:15:37.753Z,23.60
2018-11-14T07:18:07.392Z,19.30
2018-11-14T07:20:38.952Z,20.37
2018-11-14T07:23:08.265Z,19.97
2018-11-14T07:25:38.313Z,22.33
2018-11-14T07:28:07.259Z,20.77
2018-11-14T07:30:36.550Z,21.70
2018-11-14T07:33:08.328Z,21.67
2018-11-14T07:35:37.730Z,19.70
2018-11-14T07:38:51.630Z,23.63
2018-11-14T07:41:23.610Z,21.97
2018-11-14T07:43:52.809Z,20.50
2018-11-14T07:46:23.209Z,22.03
2018-11-14T07:48:53.098Z,20.50
2018-11-14T07:51:24.282Z,23.90
2018-11-14T07:53:53.820Z,20.50
2018-11-14T07:56:23.201Z,21.97
2018-11-14T07:58:52.971Z,22.43
2018-11-14T08:01:22.898Z,20.17
2018-11-14T08:03:52.176Z,25.40
2018-11-14T08:06:20.846Z,24.30
2018-11-14T08:08:50.139Z,20.80
2018-11-14T08:11:19.171Z,19.90
2018-11-14T08:13:49.963Z,20.37
2018-11-14T08:16:18.991Z,23.47
2018-11-14T08:18:47.785Z,23.87
2018-11-14T08:21:16.825Z,25.37
2018-11-14T08:23:46.409Z,26.13
2018-11-14T08:26:16.025Z,22.43
2018-11-14T08:28:45.452Z,22.43
2018-11-14T08:31:14.910Z,21.33
2018-11-14T08:33:45.827Z,23.10
2018-11-14T08:36:17.149Z,25.53
2018-11-14T08:38:46.611Z,22.63
2018-11-14T08:41:16.377Z,24.00
2018-11-14T08:43:46.889Z,23.93
2018-11-14T08:46:16.909Z,23.43
2018-11-14T08:48:50.760Z,22.07
2018-11-14T08:51:20.101Z,26.73
2018-11-14T08:53:49.846Z,24.70
2018-11-14T08:56:20.704Z,23.47
2018-11-14T08:58:51.230Z,26.07
2018-11-14T09:01:20.291Z,21.90
2018-11-14T09:03:50.149Z,23.50
2018-11-14T09:06:27.697Z,24.27
2018-11-14T09:09:05.230Z,25.00
2018-11-14T09:11:34.222Z,22.23
2018-11-14T09:14:05.052Z,22.60
2018-11-14T09:16:53.128Z,22.10
2018-11-14T09:20:10.826Z,19.57
2018-11-14T09:22:41.232Z,21.60
2018-11-14T09:25:24.920Z,23.03
2018-11-14T09:27:57.506Z,24.47
2018-11-14T09:30:42.589Z,24.00
2018-11-14T09:33:13.053Z,20.50
2018-11-14T09:35:45.266Z,22.00
2018-11-14T09:38:26.121Z,19.97
2018-11-14T09:40:57.818Z,21.23
2018-11-14T09:43:37.853Z,18.83
2018-11-14T09:46:37.766Z,20.77
2018-11-14T09:49:07.181Z,18.60
2018-11-14T09:51:49.810Z,20.80
2018-11-14T09:54:18.707Z,20.10
2018-11-14T09:56:54.093Z,20.77
2018-11-14T09:59:37.916Z,19.43
2018-11-14T10:02:22.333Z,18.47
2018-11-14T10:04:55.815Z,19.20
2018-11-14T10:07:29.635Z,19.33
2018-11-14T10:10:06.405Z,19.33
2018-11-14T10:12:52.639Z,20.03
2018-11-14T10:15:27.722Z,19.20
2018-11-14T10:17:58.246Z,18.63
2018-11-14T10:20:36.339Z,21.00
2018-11-14T10:23:17.410Z,20.10
2018-11-14T10:25:50.915Z,20.97
2018-11-14T10:28:22.868Z,20.30
2018-11-14T10:30:53.269Z,20.33
2018-11-14T10:33:23.227Z,20.73
2018-11-14T10:35:55.081Z,22.00
2018-11-14T10:38:42.409Z,21.80
2018-11-14T10:41:17.182Z,20.97
2018-11-14T10:44:06.050Z,20.87
2018-11-14T10:46:48.996Z,20.43
2018-11-14T10:49:28.715Z,20.07
2018-11-14T10:51:58.429Z,19.80
2018-11-14T10:54:30.010Z,20.50
2018-11-14T10:57:00.410Z,20.03
2018-11-14T10:59:31.005Z,20.47
2018-11-14T11:02:07.715Z,20.87
2018-11-14T11:04:41.891Z,19.43
2018-11-14T11:07:18.155Z,22.73
2018-11-14T11:09:55.592Z,21.57
2018-11-14T11:13:06.620Z,21.70
2018-11-14T11:15:48.659Z,22.30
2018-11-14T11:18:28.837Z,21.40
2018-11-14T11:21:05.294Z,22.13
2018-11-14T11:23:36.858Z,22.53
2018-11-14T11:26:11.043Z,24.93
2018-11-14T11:28:42.570Z,22.73
2018-11-14T11:31:33.003Z,21.90
2018-11-14T11:34:06.577Z,21.23
2018-11-14T11:36:38.704Z,21.80
2018-11-14T11:39:21.096Z,21.07
2018-11-14T11:42:03.364Z,23.63
2018-11-14T11:44:43.026Z,19.97
2018-11-14T11:50:02.179Z,23.60
2018-11-14T11:52:36.546Z,19.67
2018-11-14T11:55:12.781Z,21.23
2018-11-14T11:57:44.745Z,19.93
2018-11-14T12:00:20.292Z,21.80
2018-11-14T12:02:55.323Z,20.80
2018-11-14T12:05:32.160Z,20.63
2018-11-14T12:08:14.539Z,22.33
2018-11-14T12:10:45.724Z,22.57
2018-11-14T12:13:17.090Z,23.03
2018-11-14T12:15:48.689Z,21.20
2018-11-14T12:18:28.622Z,21.33
2018-11-14T12:21:00.143Z,21.63
2018-11-14T12:23:39.750Z,21.13
2018-11-14T12:26:20.736Z,20.60
2018-11-14T12:28:54.888Z,21.67
2018-11-14T12:31:35.458Z,21.70
2018-11-14T12:34:04.691Z,22.50
2018-11-14T12:36:48.631Z,21.47
2018-11-14T12:39:32.891Z,20.47
2018-11-14T12:42:16.687Z,21.30
2018-11-14T12:44:48.322Z,21.53
2018-11-14T12:47:20.094Z,20.87
2018-11-14T12:49:50.617Z,22.07
2018-11-14T12:52:52.640Z,21.33
2018-11-14T12:55:24.052Z,17.87
2018-11-14T12:57:57.449Z,17.67
2018-11-14T13:00:29.000Z,16.63
2018-11-14T13:03:00.847Z,15.73
2018-11-14T13:05:34.841Z,16.23
2018-11-14T13:08:12.126Z,16.20
2018-11-14T13:11:18.378Z,16.07
2018-11-14T13:13:50.312Z,15.23
2018-11-14T13:16:30.884Z,15.37
2018-11-14T13:19:12.314Z,13.10
2018-11-14T13:21:51.075Z,13.73
2018-11-14T13:24:37.626Z,14.13
2018-11-14T13:27:22.904Z,12.73
2018-11-14T13:29:59.131Z,11.70
2018-11-14T13:32:33.523Z,11.37
2018-11-14T13:35:06.633Z,12.27
2018-11-14T13:37:38.167Z,11.07
2018-11-14T13:40:35.145Z,11.97
2018-11-14T13:43:35.590Z,15.93
2018-11-14T13:46:11.069Z,10.67
2018-11-14T13:48:51.801Z,9.20
2018-11-14T13:51:43.616Z,9.77
2018-11-14T13:54:24.766Z,9.17
2018-11-14T13:56:59.198Z,9.53
2018-11-14T13:59:33.152Z,9.60
2018-11-14T14:02:04.345Z,10.07
2018-11-14T14:04:36.334Z,9.47
2018-11-14T14:07:07.267Z,10.73
2018-11-14T14:09:40.560Z,10.90
2018-11-14T14:12:13.992Z,11.30
2018-11-14T14:14:51.719Z,10.40
2018-11-14T14:17:37.338Z,10.57
2018-11-14T14:20:10.224Z,10.50
2018-11-14T14:22:41.918Z,10.30
2018-11-14T14:25:14.291Z,10.07
2018-11-14T14:27:46.382Z,9.63
2018-11-14T14:30:31.591Z,9.67
2018-11-14T14:33:06.431Z,9.23
2018-11-14T14:35:36.990Z,10.80
2018-11-14T14:38:08.312Z,9.53
2018-11-14T14:40:40.065Z,10.03
2018-11-14T14:43:09.065Z,9.97
2018-11-14T14:45:38.787Z,10.30
2018-11-14T14:48:07.610Z,9.87
2018-11-14T14:50:37.013Z,10.47
2018-11-14T14:53:06.712Z,11.57
2018-11-14T14:55:36.468Z,10.43
2018-11-14T14:58:05.288Z,10.57
2018-11-14T15:00:34.117Z,10.97
2018-11-14T15:03:02.945Z,11.13
2018-11-14T15:05:32.573Z,10.73
2018-11-14T15:08:01.596Z,10.73
2018-11-14T15:10:31.625Z,10.83
2018-11-14T15:13:01.096Z,10.53
2018-11-14T15:15:30.607Z,10.90
2018-11-14T15:17:59.405Z,11.00
2018-11-14T15:20:28.750Z,10.70
2018-11-14T15:22:59.276Z,10.83
2018-11-14T15:25:28.853Z,11.77
2018-11-14T15:27:57.682Z,11.90
2018-11-14T15:30:28.522Z,11.47
2018-11-14T15:32:58.064Z,11.67
2018-11-14T15:35:29.316Z,11.50
2018-11-14T15:37:59.315Z,11.97
2018-11-14T15:40:28.259Z,12.10
2018-11-14T15:42:57.723Z,12.47
2018-11-14T15:45:28.677Z,12.43
2018-11-14T15:47:58.988Z,12.50
2018-11-14T15:50:29.598Z,13.30
2018-11-14T15:52:58.809Z,13.37
2018-11-14T15:55:28.453Z,13.00
2018-11-14T15:57:58.320Z,13.57
2018-11-14T16:00:30.547Z,12.50
2018-11-14T16:03:00.412Z,12.30
2018-11-14T16:05:31.382Z,12.73
2018-11-14T16:08:01.257Z,13.37
2018-11-14T16:10:30.836Z,15.00
2018-11-14T16:12:59.944Z,13.67
2018-11-14T16:15:30.664Z,14.40
2018-11-14T16:17:59.726Z,14.00
2018-11-14T16:20:29.089Z,12.57
2018-11-14T16:22:58.708Z,13.83
2018-11-14T16:25:28.839Z,15.27
2018-11-14T16:27:59.953Z,14.63
2018-11-14T16:30:30.316Z,13.10
2018-11-14T16:33:02.169Z,14.73
2018-11-14T16:35:31.157Z,14.73
2018-11-14T16:38:00.571Z,15.00
2018-11-14T16:40:31.334Z,13.57
2018-11-14T16:43:01.893Z,14.60
2018-11-14T16:45:31.580Z,11.67
2018-11-14T16:48:01.722Z,9.43
2018-11-14T16:50:30.841Z,8.40
2018-11-14T16:52:59.741Z,7.50
2018-11-14T16:55:29.573Z,6.40
2018-11-14T16:57:58.438Z,6.70
2018-11-14T17:00:29.776Z,7.50
2018-11-14T17:03:00.160Z,6.73
2018-11-14T17:05:31.591Z,6.57
2018-11-14T17:08:00.431Z,6.90
2018-11-14T17:10:29.977Z,6.33
2018-11-14T17:13:00.113Z,6.03
2018-11-14T17:15:29.996Z,7.20
2018-11-14T17:17:59.565Z,7.20
2018-11-14T17:20:28.748Z,7.90
2018-11-14T17:22:57.896Z,7.40
2018-11-14T17:25:32.588Z,7.10
2018-11-14T17:28:11.739Z,7.57
2018-11-14T17:30:44.174Z,7.70
2018-11-14T17:33:28.548Z,9.83
2018-11-14T17:36:07.001Z,8.67
2018-11-14T17:38:43.203Z,7.93
2018-11-14T17:41:12.689Z,7.73
2018-11-14T17:43:42.371Z,7.90
2018-11-14T17:46:38.450Z,7.43
2018-11-14T17:49:42.446Z,7.67
2018-11-14T17:52:33.398Z,7.63
2018-11-14T17:55:23.634Z,7.63
2018-11-14T17:58:13.397Z,7.50
2018-11-14T18:00:54.887Z,8.23
2018-11-14T18:03:32.768Z,8.07
2018-11-14T18:06:09.020Z,9.20
2018-11-14T18:08:38.381Z,9.13
2018-11-14T18:11:19.732Z,8.97
2018-11-14T18:13:51.853Z,10.00
2018-11-14T18:16:22.054Z,10.70
2018-11-14T18:18:51.356Z,9.87
2018-11-14T18:21:20.765Z,10.47
2018-11-14T18:23:52.129Z,9.67
2018-11-14T18:26:30.569Z,10.73
2018-11-14T18:29:08.778Z,10.67
2018-11-14T18:31:53.407Z,10.93
2018-11-14T18:34:40.927Z,11.00
2018-11-14T18:40:31.676Z,10.23
2018-11-14T18:43:36.135Z,11.20
2018-11-14T18:46:10.305Z,10.17
2018-11-14T18:48:51.537Z,10.40
2018-11-14T18:51:29.458Z,11.07
2018-11-14T18:53:59.666Z,10.70
2018-11-14T18:56:30.625Z,10.87
2018-11-14T18:59:14.180Z,10.83
2018-11-14T19:01:54.982Z,11.80
2018-11-14T19:04:26.570Z,11.10
2018-11-14T19:07:00.681Z,11.20
2018-11-14T19:09:36.980Z,11.57
2018-11-14T19:12:06.198Z,11.53
2018-11-14T19:14:52.670Z,12.37
2018-11-14T19:17:28.206Z,12.60
2018-11-14T19:20:15.812Z,12.57
2018-11-14T19:22:44.768Z,13.07
2018-11-14T19:25:21.485Z,13.53
2018-11-14T19:27:58.751Z,13.60
2018-11-14T19:30:37.038Z,12.73
2018-11-14T19:33:10.745Z,13.60
2018-11-14T19:35:41.855Z,15.33
2018-11-14T19:38:12.423Z,14.70
2018-11-14T19:40:48.058Z,14.30
2018-11-14T19:43:17.909Z,14.53
2018-11-14T19:45:47.088Z,13.80
2018-11-14T19:48:24.653Z,14.40
2018-11-14T19:51:07.303Z,12.80
2018-11-14T19:53:41.471Z,13.97
2018-11-14T19:56:24.981Z,14.10
2018-11-14T19:58:55.725Z,14.17
2018-11-14T20:01:28.796Z,13.30
2018-11-14T20:04:08.815Z,14.07
2018-11-14T20:06:48.835Z,14.43
2018-11-14T20:09:22.256Z,14.90
2018-11-14T20:11:51.944Z,13.73
2018-11-14T20:14:25.532Z,14.37
2018-11-14T20:17:04.327Z,13.20
2018-11-14T20:19:42.022Z,14.00
2018-11-14T20:22:11.497Z,13.93
2018-11-14T20:24:42.012Z,14.47
2018-11-14T20:27:11.705Z,14.20
2018-11-14T20:29:41.656Z,14.43
2018-11-14T20:32:12.192Z,13.77
2018-11-14T20:34:41.596Z,14.63
2018-11-14T20:37:15.733Z,13.63
2018-11-14T20:39:44.753Z,15.03
2018-11-14T20:42:16.025Z,14.23
2018-11-14T20:45:03.665Z,14.37
2018-11-14T20:47:33.268Z,14.63
2018-11-14T20:50:15.581Z,13.53
2018-11-14T20:55:42.149Z,14.27
2018-11-14T20:58:12.227Z,14.17
2018-11-14T21:00:43.817Z,14.23
2018-11-14T21:03:12.712Z,13.97
2018-11-14T21:05:42.690Z,15.83
2018-11-14T21:08:15.126Z,14.60
2018-11-14T21:10:45.547Z,14.53
2018-11-14T21:13:16.117Z,14.70
2018-11-14T21:15:51.701Z,15.40
2018-11-14T21:18:22.777Z,15.03
2018-11-14T21:20:56.463Z,14.70
2018-11-14T21:23:26.299Z,13.47
2018-11-14T21:25:56.409Z,13.50
2018-11-14T21:28:25.920Z,14.03
2018-11-14T21:30:55.027Z,14.43
2018-11-14T21:33:27.671Z,13.83
2018-11-14T21:36:08.562Z,14.53
2018-11-14T21:38:40.985Z,14.37
2018-11-14T21:41:14.359Z,14.10
2018-11-14T21:43:44.784Z,14.60
2018-11-14T21:46:17.832Z,14.87
2018-11-14T21:48:47.916Z,15.03
2018-11-14T21:51:18.541Z,13.57
2018-11-14T21:53:51.335Z,14.30
2018-11-14T21:56:23.831Z,14.93
2018-11-14T21:58:54.960Z,14.33
2018-11-14T22:01:28.454Z,14.60
2018-11-14T22:03:58.795Z,13.57
2018-11-14T22:06:34.148Z,14.60
2018-11-14T22:09:05.726Z,15.50
2018-11-14T22:11:34.959Z,14.67
2018-11-14T22:14:04.392Z,15.00
2018-11-14T22:16:34.106Z,13.93
2018-11-14T22:19:04.528Z,13.60
2018-11-14T22:21:34.467Z,14.57
2018-11-14T22:24:03.963Z,14.07
2018-11-14T22:26:33.587Z,13.60
2018-11-14T22:29:03.972Z,13.13
2018-11-14T22:31:33.415Z,13.77
2018-11-14T22:34:02.546Z,13.47
2018-11-14T22:36:35.809Z,14.17
2018-11-14T22:39:11.403Z,13.37
2018-11-14T22:41:41.510Z,13.70
2018-11-14T22:44:16.874Z,14.60
2018-11-14T22:47:00.014Z,14.00
2018-11-14T22:49:29.019Z,14.23
2018-11-14T22:51:57.997Z,14.63
2018-11-14T22:54:32.423Z,13.40
2018-11-14T22:57:01.496Z,13.60
2018-11-14T22:59:31.600Z,12.87
2018-11-14T23:02:13.831Z,12.53
2018-11-14T23:04:43.000Z,12.73
2018-11-14T23:07:41.094Z,13.23
2018-11-14T23:10:14.123Z,13.60
2018-11-14T23:12:48.667Z,13.10
2018-11-14T23:15:22.404Z,14.23
2018-11-14T23:17:56.926Z,13.30
2018-11-14T23:20:26.315Z,13.30
2018-11-14T23:22:56.213Z,14.47
2018-11-14T23:25:26.309Z,13.30
2018-11-14T23:27:55.776Z,12.90
2018-11-14T23:30:25.579Z,13.57
2018-11-14T23:32:57.806Z,13.57
2018-11-14T23:35:33.221Z,13.37
2018-11-14T23:38:08.379Z,12.97
2018-11-14T23:40:38.611Z,13.00
2018-11-14T23:43:09.269Z,12.93
2018-11-14T23:45:40.859Z,12.43
2018-11-14T23:48:10.127Z,12.90
2018-11-14T23:50:43.120Z,12.50
2018-11-14T23:53:12.449Z,12.20
2018-11-14T23:55:43.686Z,13.53
2018-11-14T23:58:14.253Z,13.50
